sensor_id;sensor_type;location;lat;lon;timestamp;pressure;altitude;pressure_sealevel;temperature;humidity
44926;BME280;30662;51.210;7.656;2023-05-23T00:01:05;152568.00;;;15.10;100.00
44926;BME280;30662;51.210;7.656;2023-05-23T00:03:32;152518.47;;;14.90;100.00
44926;BME280;30662;51.210;7.656;2023-05-23T00:06:00;152541.38;;;14.99;100.00
44926;BME280;30662;51.210;7.656;2023-05-23T00:08:26;152541.38;;;14.99;100.00
44926;BME280;30662;51.210;7.656;2023-05-23T00:10:52;152557.84;;;15.06;100.00
44926;BME280;30662;51.210;7.656;2023-05-23T00:13:18;152562.94;;;15.08;100.00
44926;BME280;30662;51.210;7.656;2023-05-23T00:15:44;152527.38;;;14.94;100.00
44926;BME280;30662;51.210;7.656;2023-05-23T00:18:10;152498.16;;;14.82;100.00
44926;BME280;30662;51.210;7.656;2023-05-23T00:20:37;152498.16;;;14.82;100.00
44926;BME280;30662;51.210;7.656;2023-05-23T00:23:10;152533.72;;;14.96;100.00
44926;BME280;30662;51.210;7.656;2023-05-23T00:25:44;152580.72;;;15.15;100.00
44926;BME280;30662;51.210;7.656;2023-05-23T00:28:13;152571.81;;;15.11;100.00
44926;BME280;30662;51.210;7.656;2023-05-23T00:30:39;152573.09;;;15.12;100.00
44926;BME280;30662;51.210;7.656;2023-05-23T00:33:05;152552.78;;;15.04;100.00
44926;BME280;30662;51.210;7.656;2023-05-23T00:35:31;152523.59;;;14.92;100.00
44926;BME280;30662;51.210;7.656;2023-05-23T00:37:57;152527.38;;;14.94;100.00
44926;BME280;30662;51.210;7.656;2023-05-23T00:40:23;152561.69;;;15.07;100.00
44926;BME280;30662;51.210;7.656;2023-05-23T00:42:49;152559.09;;;15.06;100.00
44926;BME280;30662;51.210;7.656;2023-05-23T00:45:15;152499.44;;;14.82;100.00
44926;BME280;30662;51.210;7.656;2023-05-23T00:47:41;152503.22;;;14.84;100.00
44926;BME280;30662;51.210;7.656;2023-05-23T00:50:11;152472.78;;;14.72;100.00
44926;BME280;30662;51.210;7.656;2023-05-23T00:52:39;152465.16;;;14.69;100.00
44926;BME280;30662;51.210;7.656;2023-05-23T00:55:05;152480.38;;;14.75;100.00
44926;BME280;30662;51.210;7.656;2023-05-23T00:57:33;152495.63;;;14.81;100.00
44926;BME280;30662;51.210;7.656;2023-05-23T01:00:00;152447.38;;;14.61;100.00
44926;BME280;30662;51.210;7.656;2023-05-23T01:02:27;152435.97;;;14.57;100.00
44926;BME280;30662;51.210;7.656;2023-05-23T01:04:54;152411.81;;;14.47;100.00
44926;BME280;30662;51.210;7.656;2023-05-23T01:07:20;152377.50;;;14.33;100.00
44926;BME280;30662;51.210;7.656;2023-05-23T01:09:46;152385.16;;;14.37;100.00
44926;BME280;30662;51.210;7.656;2023-05-23T01:12:20;152350.88;;;14.23;100.00
44926;BME280;30662;51.210;7.656;2023-05-23T01:15:14;152363.56;;;14.28;100.00
44926;BME280;30662;51.210;7.656;2023-05-23T01:20:27;152338.16;;;14.18;100.00
44926;BME280;30662;51.210;7.656;2023-05-23T01:28:15;152326.78;;;14.13;100.00
44926;BME280;30662;51.210;7.656;2023-05-23T01:30:45;152317.84;;;14.10;100.00
44926;BME280;30662;51.210;7.656;2023-05-23T01:33:14;152297.56;;;14.01;100.00
44926;BME280;30662;51.210;7.656;2023-05-23T01:35:41;152279.78;;;13.94;100.00
44926;BME280;30662;51.210;7.656;2023-05-23T01:38:08;152293.75;;;14.00;100.00
44926;BME280;30662;51.210;7.656;2023-05-23T01:40:35;152260.75;;;13.87;100.00
44926;BME280;30662;51.210;7.656;2023-05-23T01:43:01;152281.06;;;13.95;100.00
44926;BME280;30662;51.210;7.656;2023-05-23T01:45:28;152312.78;;;14.07;100.00
44926;BME280;30662;51.210;7.656;2023-05-23T01:47:55;152246.78;;;13.81;100.00
44926;BME280;30662;51.210;7.656;2023-05-23T01:50:22;152220.19;;;13.70;100.00
44926;BME280;30662;51.210;7.656;2023-05-23T01:52:49;152217.66;;;13.69;100.00
44926;BME280;30662;51.210;7.656;2023-05-23T01:55:17;152235.41;;;13.76;100.00
44926;BME280;30662;51.210;7.656;2023-05-23T01:57:50;152212.53;;;13.67;100.00
44926;BME280;30662;51.210;7.656;2023-05-23T02:00:17;152192.25;;;13.59;100.00
44926;BME280;30662;51.210;7.656;2023-05-23T02:02:43;152173.22;;;13.51;100.00
44926;BME280;30662;51.210;7.656;2023-05-23T02:05:09;152188.44;;;13.58;100.00
44926;BME280;30662;51.210;7.656;2023-05-23T02:07:36;152178.28;;;13.53;100.00
44926;BME280;30662;51.210;7.656;2023-05-23T02:10:03;152182.13;;;13.55;100.00
44926;BME280;30662;51.210;7.656;2023-05-23T02:12:29;152147.88;;;13.41;100.00
44926;BME280;30662;51.210;7.656;2023-05-23T02:14:55;152130.09;;;13.34;100.00
44926;BME280;30662;51.210;7.656;2023-05-23T02:17:21;152131.38;;;13.35;100.00
44926;BME280;30662;51.210;7.656;2023-05-23T02:19:49;152152.91;;;13.43;100.00
44926;BME280;30662;51.210;7.656;2023-05-23T02:22:15;152142.75;;;13.39;100.00
44926;BME280;30662;51.210;7.656;2023-05-23T02:24:41;152144.00;;;13.40;100.00
44926;BME280;30662;51.210;7.656;2023-05-23T02:27:07;152150.41;;;13.42;100.00
44926;BME280;30662;51.210;7.656;2023-05-23T02:29:33;152179.53;;;13.54;100.00
44926;BME280;30662;51.210;7.656;2023-05-23T02:31:59;152154.19;;;13.44;100.00
44926;BME280;30662;51.210;7.656;2023-05-23T02:34:25;152206.22;;;13.65;100.00
44926;BME280;30662;51.210;7.656;2023-05-23T02:36:51;152216.38;;;13.69;100.00
44926;BME280;30662;51.210;7.656;2023-05-23T02:39:17;152196.03;;;13.61;100.00
44926;BME280;30662;51.210;7.656;2023-05-23T02:41:43;152155.44;;;13.44;100.00
44926;BME280;30662;51.210;7.656;2023-05-23T02:44:09;152184.66;;;13.56;100.00
44926;BME280;30662;51.210;7.656;2023-05-23T02:46:35;152189.72;;;13.58;100.00
44926;BME280;30662;51.210;7.656;2023-05-23T02:49:00;152168.16;;;13.49;100.00
44926;BME280;30662;51.210;7.656;2023-05-23T02:51:26;152183.38;;;13.56;100.00
44926;BME280;30662;51.210;7.656;2023-05-23T02:53:52;152184.66;;;13.56;100.00
44926;BME280;30662;51.210;7.656;2023-05-23T02:56:19;152196.03;;;13.61;100.00
44926;BME280;30662;51.210;7.656;2023-05-23T02:58:46;152174.47;;;13.52;100.00
44926;BME280;30662;51.210;7.656;2023-05-23T03:01:12;152168.16;;;13.49;100.00
44926;BME280;30662;51.210;7.656;2023-05-23T03:03:38;152165.63;;;13.48;100.00
44926;BME280;30662;51.210;7.656;2023-05-23T03:06:06;152173.22;;;13.51;100.00
44926;BME280;30662;51.210;7.656;2023-05-23T03:08:32;152187.19;;;13.57;100.00
44926;BME280;30662;51.210;7.656;2023-05-23T03:10:58;152192.25;;;13.59;100.00
44926;BME280;30662;51.210;7.656;2023-05-23T03:13:24;152159.25;;;13.46;100.00
44926;BME280;30662;51.210;7.656;2023-05-23T03:15:50;152166.88;;;13.49;100.00
44926;BME280;30662;51.210;7.656;2023-05-23T03:18:16;152160.50;;;13.46;100.00
44926;BME280;30662;51.210;7.656;2023-05-23T03:20:46;152160.50;;;13.46;100.00
44926;BME280;30662;51.210;7.656;2023-05-23T03:23:12;152141.50;;;13.39;100.00
44926;BME280;30662;51.210;7.656;2023-05-23T03:25:37;152160.50;;;13.46;100.00
44926;BME280;30662;51.210;7.656;2023-05-23T03:28:04;152141.50;;;13.39;100.00
44926;BME280;30662;51.210;7.656;2023-05-23T03:30:29;152166.88;;;13.49;100.00
44926;BME280;30662;51.210;7.656;2023-05-23T03:32:55;152135.16;;;13.36;100.00
44926;BME280;30662;51.210;7.656;2023-05-23T03:35:21;152144.00;;;13.40;100.00
44926;BME280;30662;51.210;7.656;2023-05-23T03:37:47;152126.31;;;13.33;100.00
44926;BME280;30662;51.210;7.656;2023-05-23T03:40:13;152094.59;;;13.20;100.00
44926;BME280;30662;51.210;7.656;2023-05-23T03:42:39;152125.00;;;13.32;100.00
44926;BME280;30662;51.210;7.656;2023-05-23T03:45:05;152138.97;;;13.38;100.00
44926;BME280;30662;51.210;7.656;2023-05-23T03:47:31;152113.63;;;13.28;100.00
44926;BME280;30662;51.210;7.656;2023-05-23T03:49:57;152151.66;;;13.43;100.00
44926;BME280;30662;51.210;7.656;2023-05-23T03:52:23;152137.69;;;13.37;100.00
44926;BME280;30662;51.210;7.656;2023-05-23T03:54:49;152154.19;;;13.44;100.00
44926;BME280;30662;51.210;7.656;2023-05-23T03:57:15;152137.69;;;13.37;100.00
44926;BME280;30662;51.210;7.656;2023-05-23T03:59:41;152112.34;;;13.27;100.00
44926;BME280;30662;51.210;7.656;2023-05-23T04:02:07;152137.69;;;13.37;100.00
44926;BME280;30662;51.210;7.656;2023-05-23T04:04:33;152130.09;;;13.34;100.00
44926;BME280;30662;51.210;7.656;2023-05-23T04:06:59;152123.72;;;13.32;100.00
44926;BME280;30662;51.210;7.656;2023-05-23T04:09:26;152119.94;;;13.30;100.00
44926;BME280;30662;51.210;7.656;2023-05-23T04:11:52;152132.63;;;13.35;100.00
44926;BME280;30662;51.210;7.656;2023-05-23T04:14:17;152117.41;;;13.29;100.00
44926;BME280;30662;51.210;7.656;2023-05-23T04:16:47;152095.84;;;13.20;100.00
44926;BME280;30662;51.210;7.656;2023-05-23T04:19:13;152108.56;;;13.26;100.00
44926;BME280;30662;51.210;7.656;2023-05-23T04:21:39;152086.91;;;13.17;100.00
44926;BME280;30662;51.210;7.656;2023-05-23T04:24:08;152090.75;;;13.18;100.00
44926;BME280;30662;51.210;7.656;2023-05-23T04:26:34;152097.13;;;13.21;100.00
44926;BME280;30662;51.210;7.656;2023-05-23T04:29:02;152099.66;;;13.22;100.00
44926;BME280;30662;51.210;7.656;2023-05-23T04:31:29;152118.66;;;13.30;100.00
44926;BME280;30662;51.210;7.656;2023-05-23T04:33:55;152084.38;;;13.16;100.00
44926;BME280;30662;51.210;7.656;2023-05-23T04:36:22;152102.19;;;13.23;100.00
44926;BME280;30662;51.210;7.656;2023-05-23T04:38:48;152098.38;;;13.21;100.00
44926;BME280;30662;51.210;7.656;2023-05-23T04:41:14;152112.34;;;13.27;100.00
44926;BME280;30662;51.210;7.656;2023-05-23T04:43:41;152075.50;;;13.12;100.00
44926;BME280;30662;51.210;7.656;2023-05-23T04:46:10;152100.91;;;13.22;100.00
44926;BME280;30662;51.210;7.656;2023-05-23T04:48:38;152097.13;;;13.21;100.00
44926;BME280;30662;51.210;7.656;2023-05-23T04:51:04;152076.78;;;13.13;100.00
44926;BME280;30662;51.210;7.656;2023-05-23T04:53:33;152055.22;;;13.04;100.00
44926;BME280;30662;51.210;7.656;2023-05-23T04:56:00;152089.44;;;13.18;100.00
44926;BME280;30662;51.210;7.656;2023-05-23T04:58:26;152117.41;;;13.29;100.00
44926;BME280;30662;51.210;7.656;2023-05-23T05:00:51;152056.50;;;13.05;100.00
44926;BME280;30662;51.210;7.656;2023-05-23T05:03:18;152043.81;;;13.00;100.00
44926;BME280;30662;51.210;7.656;2023-05-23T05:05:44;152033.63;;;12.95;100.00
44926;BME280;30662;51.210;7.656;2023-05-23T05:08:10;152029.84;;;12.94;100.00
44926;BME280;30662;51.210;7.656;2023-05-23T05:10:38;152041.28;;;12.98;100.00
44926;BME280;30662;51.210;7.656;2023-05-23T05:13:05;152047.59;;;13.01;100.00
44926;BME280;30662;51.210;7.656;2023-05-23T05:15:31;152053.97;;;13.04;100.00
44926;BME280;30662;51.210;7.656;2023-05-23T05:17:56;152065.34;;;13.08;100.00
44926;BME280;30662;51.210;7.656;2023-05-23T05:20:22;152046.31;;;13.01;100.00
44926;BME280;30662;51.210;7.656;2023-05-23T05:22:54;152055.22;;;13.04;100.00
44926;BME280;30662;51.210;7.656;2023-05-23T05:25:21;152032.38;;;12.95;100.00
44926;BME280;30662;51.210;7.656;2023-05-23T05:27:47;152033.63;;;12.95;100.00
44926;BME280;30662;51.210;7.656;2023-05-23T05:30:13;152038.75;;;12.97;100.00
44926;BME280;30662;51.210;7.656;2023-05-23T05:32:39;152007.03;;;12.85;100.00
44926;BME280;30662;51.210;7.656;2023-05-23T05:35:07;152001.97;;;12.83;100.00
44926;BME280;30662;51.210;7.656;2023-05-23T05:37:33;152001.97;;;12.83;100.00
44926;BME280;30662;51.210;7.656;2023-05-23T05:39:59;151988.00;;;12.77;100.00
44926;BME280;30662;51.210;7.656;2023-05-23T05:42:30;152026.03;;;12.92;100.00
44926;BME280;30662;51.210;7.656;2023-05-23T05:44:56;152034.91;;;12.96;100.00
44926;BME280;30662;51.210;7.656;2023-05-23T05:47:22;152010.81;;;12.86;100.00
44926;BME280;30662;51.210;7.656;2023-05-23T05:49:48;152022.25;;;12.91;100.00
44926;BME280;30662;51.210;7.656;2023-05-23T05:52:14;152040.00;;;12.98;100.00
44926;BME280;30662;51.210;7.656;2023-05-23T05:54:40;152075.50;;;13.12;100.00
44926;BME280;30662;51.210;7.656;2023-05-23T05:57:06;152099.66;;;13.22;100.00
44926;BME280;30662;51.210;7.656;2023-05-23T05:59:32;152084.38;;;13.16;100.00
44926;BME280;30662;51.210;7.656;2023-05-23T06:01:58;152125.00;;;13.32;100.00
44926;BME280;30662;51.210;7.656;2023-05-23T06:04:24;152127.56;;;13.33;100.00
44926;BME280;30662;51.210;7.656;2023-05-23T06:06:50;152142.75;;;13.39;100.00
44926;BME280;30662;51.210;7.656;2023-05-23T06:09:16;152142.75;;;13.39;100.00
44926;BME280;30662;51.210;7.656;2023-05-23T06:11:42;152108.56;;;13.26;100.00
44926;BME280;30662;51.210;7.656;2023-05-23T06:14:08;152108.56;;;13.26;100.00
44926;BME280;30662;51.210;7.656;2023-05-23T06:16:35;152072.97;;;13.11;100.00
44926;BME280;30662;51.210;7.656;2023-05-23T06:19:01;152064.09;;;13.08;100.00
44926;BME280;30662;51.210;7.656;2023-05-23T06:21:27;152052.66;;;13.03;100.00
44926;BME280;30662;51.210;7.656;2023-05-23T06:23:53;152098.38;;;13.21;100.00
44926;BME280;30662;51.210;7.656;2023-05-23T06:26:19;152066.63;;;13.09;100.00
44926;BME280;30662;51.210;7.656;2023-05-23T06:28:45;152026.03;;;12.92;100.00
44926;BME280;30662;51.210;7.656;2023-05-23T06:31:11;152015.88;;;12.88;100.00
44926;BME280;30662;51.210;7.656;2023-05-23T06:33:37;152018.47;;;12.89;100.00
44926;BME280;30662;51.210;7.656;2023-05-23T06:36:03;152023.53;;;12.91;100.00
44926;BME280;30662;51.210;7.656;2023-05-23T06:38:30;152015.88;;;12.88;100.00
44926;BME280;30662;51.210;7.656;2023-05-23T06:40:59;152037.47;;;12.97;100.00
44926;BME280;30662;51.210;7.656;2023-05-23T06:43:25;152018.47;;;12.89;100.00
44926;BME280;30662;51.210;7.656;2023-05-23T06:45:50;152027.31;;;12.93;100.00
44926;BME280;30662;51.210;7.656;2023-05-23T06:48:17;152038.75;;;12.97;100.00
44926;BME280;30662;51.210;7.656;2023-05-23T06:50:43;152012.09;;;12.87;100.00
44926;BME280;30662;51.210;7.656;2023-05-23T06:53:09;151996.88;;;12.81;100.00
44926;BME280;30662;51.210;7.656;2023-05-23T06:55:35;151993.06;;;12.79;100.00
44926;BME280;30662;51.210;7.656;2023-05-23T06:58:01;152015.88;;;12.88;100.00
44926;BME280;30662;51.210;7.656;2023-05-23T07:00:29;151998.13;;;12.81;100.00
44926;BME280;30662;51.210;7.656;2023-05-23T07:02:58;151996.88;;;12.81;100.00
44926;BME280;30662;51.210;7.656;2023-05-23T07:05:28;152000.72;;;12.82;100.00
44926;BME280;30662;51.210;7.656;2023-05-23T07:07:55;151989.28;;;12.78;100.00
44926;BME280;30662;51.210;7.656;2023-05-23T07:10:21;151981.63;;;12.75;100.00
44926;BME280;30662;51.210;7.656;2023-05-23T07:12:47;151957.56;;;12.65;100.00
44926;BME280;30662;51.210;7.656;2023-05-23T07:15:13;151989.28;;;12.78;100.00
44926;BME280;30662;51.210;7.656;2023-05-23T07:17:40;151976.59;;;12.73;100.00
44926;BME280;30662;51.210;7.656;2023-05-23T07:20:07;151952.50;;;12.63;100.00
44926;BME280;30662;51.210;7.656;2023-05-23T07:22:33;151958.84;;;12.65;100.00
44926;BME280;30662;51.210;7.656;2023-05-23T07:24:59;151982.94;;;12.75;100.00
44926;BME280;30662;51.210;7.656;2023-05-23T07:27:28;151955.03;;;12.64;100.00
44926;BME280;30662;51.210;7.656;2023-05-23T07:29:54;151969.00;;;12.69;100.00
44926;BME280;30662;51.210;7.656;2023-05-23T07:32:22;152023.53;;;12.91;100.00
44926;BME280;30662;51.210;7.656;2023-05-23T07:34:48;151953.78;;;12.63;100.00
44926;BME280;30662;51.210;7.656;2023-05-23T07:37:13;151956.31;;;12.64;100.00
44926;BME280;30662;51.210;7.656;2023-05-23T07:39:40;151953.78;;;12.63;100.00
44926;BME280;30662;51.210;7.656;2023-05-23T07:42:06;151979.13;;;12.74;100.00
44926;BME280;30662;51.210;7.656;2023-05-23T07:44:32;151958.84;;;12.65;100.00
44926;BME280;30662;51.210;7.656;2023-05-23T07:46:58;151930.97;;;12.54;100.00
44926;BME280;30662;51.210;7.656;2023-05-23T07:49:24;151927.13;;;12.53;100.00
44926;BME280;30662;51.210;7.656;2023-05-23T07:51:50;151925.88;;;12.52;100.00
44926;BME280;30662;51.210;7.656;2023-05-23T07:54:16;151925.88;;;12.52;100.00
44926;BME280;30662;51.210;7.656;2023-05-23T07:56:42;151929.69;;;12.54;100.00
44926;BME280;30662;51.210;7.656;2023-05-23T07:59:08;151918.28;;;12.49;100.00
44926;BME280;30662;51.210;7.656;2023-05-23T08:01:34;151917.00;;;12.49;100.00
44926;BME280;30662;51.210;7.656;2023-05-23T08:04:01;151913.22;;;12.47;100.00
44926;BME280;30662;51.210;7.656;2023-05-23T08:06:27;151866.31;;;12.28;100.00
44926;BME280;30662;51.210;7.656;2023-05-23T08:08:53;151901.78;;;12.42;100.00
44926;BME280;30662;51.210;7.656;2023-05-23T08:11:19;151906.84;;;12.45;100.00
44926;BME280;30662;51.210;7.656;2023-05-23T08:13:45;151861.25;;;12.26;100.00
44926;BME280;30662;51.210;7.656;2023-05-23T08:16:11;151849.81;;;12.22;100.00
44926;BME280;30662;51.210;7.656;2023-05-23T08:18:37;151847.28;;;12.21;100.00
44926;BME280;30662;51.210;7.656;2023-05-23T08:21:03;151828.28;;;12.13;100.00
44926;BME280;30662;51.210;7.656;2023-05-23T08:23:29;151839.72;;;12.18;100.00
44926;BME280;30662;51.210;7.656;2023-05-23T08:25:55;151844.75;;;12.20;100.00
44926;BME280;30662;51.210;7.656;2023-05-23T08:28:23;151810.53;;;12.06;100.00
44926;BME280;30662;51.210;7.656;2023-05-23T08:30:49;151825.75;;;12.12;100.00
44926;BME280;30662;51.210;7.656;2023-05-23T08:33:16;151809.28;;;12.05;100.00
44926;BME280;30662;51.210;7.656;2023-05-23T08:35:42;151840.97;;;12.18;100.00
44926;BME280;30662;51.210;7.656;2023-05-23T08:38:08;151815.59;;;12.08;100.00
44926;BME280;30662;51.210;7.656;2023-05-23T08:40:35;151833.34;;;12.15;100.00
44926;BME280;30662;51.210;7.656;2023-05-23T08:43:01;151834.59;;;12.15;100.00
44926;BME280;30662;51.210;7.656;2023-05-23T08:45:27;151809.28;;;12.05;100.00
44926;BME280;30662;51.210;7.656;2023-05-23T08:47:59;151808.00;;;12.05;100.00
44926;BME280;30662;51.210;7.656;2023-05-23T08:50:27;151848.56;;;12.21;100.00
44926;BME280;30662;51.210;7.656;2023-05-23T08:52:57;151785.22;;;11.96;100.00
44926;BME280;30662;51.210;7.656;2023-05-23T08:55:24;151787.75;;;11.97;100.00
44926;BME280;30662;51.210;7.656;2023-05-23T08:57:54;151813.06;;;12.07;100.00
44926;BME280;30662;51.210;7.656;2023-05-23T09:00:22;151797.84;;;12.01;100.00
44926;BME280;30662;51.210;7.656;2023-05-23T09:02:50;151861.25;;;12.26;100.00
44926;BME280;30662;51.210;7.656;2023-05-23T09:05:17;151861.25;;;12.26;100.00
44926;BME280;30662;51.210;7.656;2023-05-23T09:07:45;151859.97;;;12.26;100.00
44926;BME280;30662;51.210;7.656;2023-05-23T09:10:17;151882.78;;;12.35;100.00
44926;BME280;30662;51.210;7.656;2023-05-23T09:12:45;151863.78;;;12.27;100.00
44926;BME280;30662;51.210;7.656;2023-05-23T09:15:11;151901.78;;;12.42;100.00
44926;BME280;30662;51.210;7.656;2023-05-23T09:17:38;151929.69;;;12.54;100.00
44926;BME280;30662;51.210;7.656;2023-05-23T09:20:12;151919.53;;;12.50;100.00
44926;BME280;30662;51.210;7.656;2023-05-23T09:22:39;151908.13;;;12.45;100.00
44926;BME280;30662;51.210;7.656;2023-05-23T09:25:06;151889.09;;;12.37;100.00
44926;BME280;30662;51.210;7.656;2023-05-23T09:27:32;151892.94;;;12.39;100.00
44926;BME280;30662;51.210;7.656;2023-05-23T09:30:05;151920.81;;;12.50;100.00
44926;BME280;30662;51.210;7.656;2023-05-23T09:32:31;151924.59;;;12.52;100.00
44926;BME280;30662;51.210;7.656;2023-05-23T09:34:58;151944.88;;;12.60;100.00
44926;BME280;30662;51.210;7.656;2023-05-23T09:37:35;151892.94;;;12.39;100.00
44926;BME280;30662;51.210;7.656;2023-05-23T09:40:10;151884.03;;;12.35;100.00
44926;BME280;30662;51.210;7.656;2023-05-23T09:42:46;151867.56;;;12.29;100.00
44926;BME280;30662;51.210;7.656;2023-05-23T09:45:14;151848.56;;;12.21;100.00
44926;BME280;30662;51.210;7.656;2023-05-23T09:47:51;151816.84;;;12.08;100.00
44926;BME280;30662;51.210;7.656;2023-05-23T09:50:18;151816.84;;;12.08;100.00
44926;BME280;30662;51.210;7.656;2023-05-23T09:52:44;151796.59;;;12.00;100.00
44926;BME280;30662;51.210;7.656;2023-05-23T09:55:11;151764.91;;;11.87;100.00
44926;BME280;30662;51.210;7.656;2023-05-23T09:57:40;151819.38;;;12.09;100.00
44926;BME280;30662;51.210;7.656;2023-05-23T10:00:11;151813.06;;;12.07;100.00
44926;BME280;30662;51.210;7.656;2023-05-23T10:05:28;151853.59;;;12.23;100.00
44926;BME280;30662;51.210;7.656;2023-05-23T10:07:58;151853.59;;;12.23;100.00
44926;BME280;30662;51.210;7.656;2023-05-23T10:10:30;151873.94;;;12.31;100.00
44926;BME280;30662;51.210;7.656;2023-05-23T10:12:57;151840.97;;;12.18;100.00
44926;BME280;30662;51.210;7.656;2023-05-23T10:15:26;151858.72;;;12.25;100.00
44926;BME280;30662;51.210;7.656;2023-05-23T10:18:11;151843.50;;;12.19;100.00
44926;BME280;30662;51.210;7.656;2023-05-23T10:20:42;151801.69;;;12.02;100.00
44926;BME280;30662;51.210;7.656;2023-05-23T10:23:12;151799.13;;;12.01;100.00
44926;BME280;30662;51.210;7.656;2023-05-23T10:25:38;151796.59;;;12.00;100.00
44926;BME280;30662;51.210;7.656;2023-05-23T10:28:06;151786.47;;;11.96;100.00
44926;BME280;30662;51.210;7.656;2023-05-23T10:30:34;151757.31;;;11.84;100.00
44926;BME280;30662;51.210;7.656;2023-05-23T10:33:01;151686.31;;;11.56;100.00
44926;BME280;30662;51.210;7.656;2023-05-23T10:35:47;151724.31;;;11.71;100.00
44926;BME280;30662;51.210;7.656;2023-05-23T10:38:23;151729.41;;;11.73;100.00
44926;BME280;30662;51.210;7.656;2023-05-23T10:41:02;151729.41;;;11.73;100.00
44926;BME280;30662;51.210;7.656;2023-05-23T10:46:52;151794.06;;;11.99;100.00
44926;BME280;30662;51.210;7.656;2023-05-23T10:49:19;151781.38;;;11.94;100.00
44926;BME280;30662;51.210;7.656;2023-05-23T10:51:50;151767.47;;;11.89;100.00
44926;BME280;30662;51.210;7.656;2023-05-23T10:54:19;151749.72;;;11.81;100.00
44926;BME280;30662;51.210;7.656;2023-05-23T10:56:45;151725.56;;;11.72;100.00
44926;BME280;30662;51.210;7.656;2023-05-23T10:59:21;151730.69;;;11.74;100.00
44926;BME280;30662;51.210;7.656;2023-05-23T11:01:50;151701.53;;;11.62;100.00
44926;BME280;30662;51.210;7.656;2023-05-23T11:04:24;151718.00;;;11.69;100.00
44926;BME280;30662;51.210;7.656;2023-05-23T11:06:55;151764.91;;;11.87;100.00
44926;BME280;30662;51.210;7.656;2023-05-23T11:09:22;151790.25;;;11.98;100.00
44926;BME280;30662;51.210;7.656;2023-05-23T11:12:01;151908.13;;;12.45;100.00
44926;BME280;30662;51.210;7.656;2023-05-23T11:19:27;151834.59;;;12.15;100.00
44926;BME280;30662;51.210;7.656;2023-05-23T11:22:02;151828.28;;;12.13;100.00
44926;BME280;30662;51.210;7.656;2023-05-23T11:24:51;151764.91;;;11.87;100.00
44926;BME280;30662;51.210;7.656;2023-05-23T11:27:30;151800.38;;;12.02;100.00
44926;BME280;30662;51.210;7.656;2023-05-23T11:29:57;151764.91;;;11.87;100.00
44926;BME280;30662;51.210;7.656;2023-05-23T11:32:26;151777.59;;;11.93;100.00
44926;BME280;30662;51.210;7.656;2023-05-23T11:34:53;151748.47;;;11.81;100.00
44926;BME280;30662;51.210;7.656;2023-05-23T11:37:19;151740.78;;;11.78;100.00
44926;BME280;30662;51.210;7.656;2023-05-23T11:39:45;151704.06;;;11.63;100.00
44926;BME280;30662;51.210;7.656;2023-05-23T11:42:11;151674.91;;;11.51;100.00
44926;BME280;30662;51.210;7.656;2023-05-23T11:44:37;151686.31;;;11.56;100.00
44926;BME280;30662;51.210;7.656;2023-05-23T11:47:06;151666.03;;;11.48;100.00
44926;BME280;30662;51.210;7.656;2023-05-23T11:49:37;151620.44;;;11.29;100.00
44926;BME280;30662;51.210;7.656;2023-05-23T11:52:04;151565.97;;;11.08;100.00
44926;BME280;30662;51.210;7.656;2023-05-23T11:54:31;151607.78;;;11.24;100.00
44926;BME280;30662;51.210;7.656;2023-05-23T11:56:57;151624.25;;;11.31;100.00
44926;BME280;30662;51.210;7.656;2023-05-23T11:59:25;151677.47;;;11.52;100.00
44926;BME280;30662;51.210;7.656;2023-05-23T12:01:55;151707.84;;;11.65;100.00
44926;BME280;30662;51.210;7.656;2023-05-23T12:04:21;151711.69;;;11.66;100.00
44926;BME280;30662;51.210;7.656;2023-05-23T12:06:48;151751.00;;;11.82;100.00
44926;BME280;30662;51.210;7.656;2023-05-23T12:09:15;151714.22;;;11.67;100.00
44926;BME280;30662;51.210;7.656;2023-05-23T12:11:42;151721.78;;;11.70;100.00
44926;BME280;30662;51.210;7.656;2023-05-23T12:14:13;151707.84;;;11.65;100.00
44926;BME280;30662;51.210;7.656;2023-05-23T12:16:43;151690.09;;;11.57;100.00
44926;BME280;30662;51.210;7.656;2023-05-23T12:19:15;151733.22;;;11.75;100.00
44926;BME280;30662;51.210;7.656;2023-05-23T12:21:46;151680.00;;;11.53;100.00
44926;BME280;30662;51.210;7.656;2023-05-23T12:24:17;151720.53;;;11.70;100.00
44926;BME280;30662;51.210;7.656;2023-05-23T12:27:13;151789.00;;;11.97;100.00
44926;BME280;30662;51.210;7.656;2023-05-23T12:29:49;151889.09;;;12.37;100.00
44926;BME280;30662;51.210;7.656;2023-05-23T12:32:16;152005.75;;;12.84;100.00
44926;BME280;30662;51.210;7.656;2023-05-23T12:34:42;151980.38;;;12.74;100.00
44926;BME280;30662;51.210;7.656;2023-05-23T12:37:08;151960.09;;;12.66;100.00
44926;BME280;30662;51.210;7.656;2023-05-23T12:39:37;151965.19;;;12.68;100.00
44926;BME280;30662;51.210;7.656;2023-05-23T12:42:07;151943.59;;;12.59;100.00
44926;BME280;30662;51.210;7.656;2023-05-23T12:44:40;151894.22;;;12.39;100.00
44926;BME280;30662;51.210;7.656;2023-05-23T12:47:06;151846.03;;;12.20;100.00
44926;BME280;30662;51.210;7.656;2023-05-23T12:49:32;151804.22;;;12.03;100.00
44926;BME280;30662;51.210;7.656;2023-05-23T12:51:58;151757.31;;;11.84;100.00
44926;BME280;30662;51.210;7.656;2023-05-23T12:54:24;151796.59;;;12.00;100.00
44926;BME280;30662;51.210;7.656;2023-05-23T12:56:50;151814.31;;;12.07;100.00
44926;BME280;30662;51.210;7.656;2023-05-23T12:59:15;151856.19;;;12.24;100.00
44926;BME280;30662;51.210;7.656;2023-05-23T13:01:42;151889.09;;;12.37;100.00